Elberta, UT

3:18 AM MDT on May 06, 2015 (GMT -0600)
Provo Municipal | | Change Station
CLOSE
Current Station
Airport
Location: Provo,
Elevation: 4495 ft
Nearby Weather Stations

Elev 4495 ft 40.22 °N, 111.72 °W | Updated 3 minutes ago

Overcast
Overcast
52 °F
Feels Like 52 °F
N
0
Wind Variable Wind from North

Today
High -- | Low -- °F
--% Chance of Precip.
Yesterday
High -- | Low -- °F
Precip. -- in
6:22 AM 8:28 PM
Waning Gibbous, 95% visible
Pressure 29.85 in
Visibility 9.0 miles
Clouds Few 1400 ft
Scattered Clouds 3100 ft
Mostly Cloudy 3700 ft
Dew Point 46 °F
Humidity 82%
Rainfall 0.21 in
Snow Depth Not available.
UV 0 out of 12
Pollen 8.20 out of 12
Air Quality Not available.
Flu Activity Regional
METAR KPVU 060915Z AUTO 00000KT 9SM FEW014 SCT031 BKN037 11/08 A2985 RMK AO1 P0002

More Conditions Fewer Conditions

Pressure 29.85 in
Visibility 9.0 miles
Clouds Few 1400 ft
Scattered Clouds 3100 ft
Mostly Cloudy 3700 ft
Dew Point 46 °F
Humidity 82%
Rainfall 0.21 in
Snow Depth Not available.
UV 0 out of 12
Pollen 8.20 out of 12
Air Quality Not available.
Flu Activity Regional
METAR KPVU 060915Z AUTO 00000KT 9SM FEW014 SCT031 BKN037 11/08 A2985 RMK AO1 P0002

More Conditions Fewer Conditions

10-Day Weather Forecast

Almanac

Astronomy

May. 06, 2015 Rise Set
Actual Time
Civil Twilight
Nautical Twilight
Astronomical Twilight
Moon
Length of Visible Light
Length of Day
Tomorrow will be .
, % of the Moon is Illuminated

Today's Extremes

State Highs State Lows

Community

WunderPhotos

Upload Photos

1,818,858 photos uploaded!

WunderBlogs® & News

Nearby

Air Quality

  Air Quality AQ Index Pollutant
Not available.

Snow Depth

Station Depth Elevation

Earthquake Activity

City Distance Mag. Time & Date
Minimum magnitude displayed is 2.5.

Coastal Water Temperatures

Place Temperature

Stations

Nearby Weather Stations

Station Location Temp. Windchill Dew Point Humidity Wind Precip. Elev Updated Type